Time;durP1;ratioP1;P1;durP2;ratioP2;P2;SDS_P1;SDS_P2;PMS_P1;PMS_P2;Temp;Humidity;BMP_temperature;BMP_pressure;BME280_temperature;BME280_humidity;BME280_pressure;Samples;Min_cycle;Max_cycle;Signal;HPM_P1;HPM_P2
2023/06/03 06:50:08;;;;;;;;;;;;;;;23.03;56.02;96715.19;4225588;27;10240;-76
2023/06/03 06:52:12;;;;;;;;;;;;;;;23.34;55.59;96717.78;4213632;28;5813;-73
2023/06/03 06:54:17;;;;;;;;;;;;;;;23.54;55.22;96718.47;4210688;28;5686;-71
2023/06/03 06:56:21;;;;;;;;;;;;;;;23.70;55.11;96716.56;4206276;28;5698;-72
2023/06/03 06:58:31;;;;;;;;;;;;;;;23.83;55.05;96717.81;4201270;28;5815;-74
2023/06/03 07:00:34;;;;;;;;;;;;;;;23.93;54.29;96719.66;4204045;28;5929;-75
2023/06/03 07:02:37;;;;;;;;;;;;;;;23.95;54.14;96718.28;4203583;28;6117;-71
2023/06/03 07:04:40;;;;;;;;;;;;;;;23.95;54.38;96715.59;4202143;28;5686;-68
2023/06/03 07:06:44;;;;;;;;;;;;;;;23.97;54.14;96720.69;4200330;28;6595;-75
2023/06/03 07:08:47;;;;;;;;;;;;;;;24.03;53.69;96717.69;4202358;28;5965;-75
2023/06/03 07:10:51;;;;;;;;;;;;;;;24.05;53.98;96717.41;4199852;28;6983;-70
2023/06/03 07:12:56;;;;;;;;;;;;;;;24.04;54.08;96715.81;4204726;28;5754;-75
2023/06/03 07:15:01;;;;;;;;;;;;;;;24.00;53.74;96718.25;4213329;28;5730;-73
2023/06/03 07:17:04;;;;;;;;;;;;;;;23.99;53.34;96724.72;4196862;28;5798;-71
2023/06/03 07:19:07;;;;;;;;;;;;;;;23.96;53.69;96725.28;4211574;28;5856;-72
2023/06/03 07:21:11;;;;;;;;;;;;;;;23.93;53.63;96727.75;4197790;28;5739;-70
2023/06/03 07:23:21;;;;;;;;;;;;;;;23.92;53.54;96724.25;4211929;28;5825;-73
2023/06/03 07:25:32;;;;;;;;;;;;;;;23.95;53.65;96726.38;4212484;28;5706;-70
2023/06/03 07:27:35;;;;;;;;;;;;;;;23.93;53.23;96722.34;4210951;28;5853;-71
2023/06/03 07:29:39;;;;;;;;;;;;;;;23.90;52.99;96721.03;4213097;28;5901;-73
2023/06/03 07:31:42;;;;;;;;;;;;;;;23.86;53.34;96724.56;4204666;28;5694;-76
2023/06/03 07:33:50;;;;;;;;;;;;;;;23.86;52.99;96722.66;4206956;28;5743;-70
2023/06/03 07:35:55;;;;;;;;;;;;;;;23.84;53.01;96737.53;4196308;28;5819;-74
2023/06/03 07:37:58;;;;;;;;;;;;;;;23.84;53.02;96732.94;4204405;28;5811;-69
2023/06/03 07:40:02;;;;;;;;;;;;;;;23.83;52.66;96739.41;4200009;28;5830;-71
2023/06/03 07:42:12;;;;;;;;;;;;;;;23.79;52.40;96730.28;4210764;28;5720;-72
2023/06/03 07:44:18;;;;;;;;;;;;;;;23.76;52.34;96734.31;4205739;28;5773;-74
2023/06/03 07:46:36;;;;;;;;;;;;;;;23.76;52.72;96728.91;4202222;28;6471;-72
2023/06/03 07:48:40;;;;;;;;;;;;;;;23.76;52.19;96734.31;4198080;28;6497;-70
2023/06/03 07:50:42;;;;;;;;;;;;;;;23.73;52.03;96729.47;4186368;28;5835;-74
2023/06/03 07:52:45;;;;;;;;;;;;;;;23.73;51.97;96731.38;4184722;28;5716;-74
2023/06/03 07:54:49;;;;;;;;;;;;;;;23.71;52.26;96722.75;4191100;28;5840;-70
2023/06/03 07:56:56;;;;;;;;;;;;;;;23.72;52.20;96727.88;4185397;28;7806;-76
2023/06/03 07:59:00;;;;;;;;;;;;;;;23.74;51.88;96727.59;4200971;28;5760;-68
2023/06/03 08:01:05;;;;;;;;;;;;;;;23.75;52.01;96729.19;4200087;28;5690;-73
2023/06/03 08:03:08;;;;;;;;;;;;;;;23.71;51.60;96734.34;4185629;28;5877;-73
2023/06/03 08:05:11;;;;;;;;;;;;;;;23.69;51.58;96725.75;4190810;28;5786;-71
2023/06/03 08:07:15;;;;;;;;;;;;;;;23.69;51.52;96731.13;4191820;28;7707;-73
2023/06/03 08:09:25;;;;;;;;;;;;;;;23.69;51.70;96727.63;4183379;28;6667;-75
2023/06/03 08:11:28;;;;;;;;;;;;;;;23.70;51.49;96729.25;4196163;28;5828;-73
2023/06/03 08:13:33;;;;;;;;;;;;;;;23.66;52.04;96726.28;4191027;28;5788;-75
2023/06/03 08:15:36;;;;;;;;;;;;;;;23.68;51.93;96729.53;4195166;28;5885;-71
2023/06/03 08:17:43;;;;;;;;;;;;;;;23.71;51.90;96728.97;4191151;28;5850;-74
2023/06/03 08:19:46;;;;;;;;;;;;;;;23.77;51.40;96733.22;4193060;28;5690;-69
2023/06/03 08:21:50;;;;;;;;;;;;;;;23.79;51.71;96736.47;4199169;28;5741;-67
2023/06/03 08:23:53;;;;;;;;;;;;;;;23.76;51.55;96731.63;4193348;28;5802;-69
2023/06/03 08:26:00;;;;;;;;;;;;;;;23.77;51.38;96729.72;4198826;28;5785;-68
2023/06/03 08:28:03;;;;;;;;;;;;;;;23.78;51.53;96734.88;4190681;28;6526;-69
2023/06/03 08:30:09;;;;;;;;;;;;;;;23.73;51.47;96731.38;4197926;28;5157;-69
2023/06/03 08:32:12;;;;;;;;;;;;;;;23.73;51.21;96734.88;4197653;28;5860;-70
2023/06/03 08:34:15;;;;;;;;;;;;;;;23.72;51.12;96727.06;4191684;28;5759;-72
2023/06/03 08:36:19;;;;;;;;;;;;;;;23.72;51.16;96729.75;4192283;28;5932;-70
2023/06/03 08:38:22;;;;;;;;;;;;;;;23.71;51.28;96734.34;4198430;28;5772;-69
2023/06/03 08:40:26;;;;;;;;;;;;;;;23.70;51.47;96738.16;4199814;28;6514;-69
2023/06/03 08:42:33;;;;;;;;;;;;;;;23.67;51.00;96732.47;4188106;28;5707;-68
2023/06/03 08:44:45;;;;;;;;;;;;;;;23.64;51.51;96733.03;4191916;28;6527;-69
2023/06/03 08:47:00;;;;;;;;;;;;;;;23.65;51.01;96735.47;4198794;28;5789;-70
2023/06/03 08:49:07;;;;;;;;;;;;;;;23.68;51.11;96732.22;4195728;28;5806;-69
2023/06/03 08:51:15;;;;;;;;;;;;;;;23.69;51.23;96733.84;4198695;28;5860;-69
2023/06/03 08:53:19;;;;;;;;;;;;;;;23.70;50.79;96732.75;4193067;28;5789;-69
2023/06/03 08:55:23;;;;;;;;;;;;;;;23.72;51.05;96735.97;4193823;28;5789;-68
2023/06/03 08:57:29;;;;;;;;;;;;;;;23.72;50.62;96735.16;4199216;28;5843;-71
2023/06/03 08:59:33;;;;;;;;;;;;;;;23.69;51.11;96731.13;4195971;28;5827;-69
2023/06/03 09:01:37;;;;;;;;;;;;;;;23.66;50.78;96728.97;4192946;28;5808;-70
2023/06/03 09:03:44;;;;;;;;;;;;;;;23.67;51.08;96729.78;4190995;28;5720;-76
2023/06/03 09:05:48;;;;;;;;;;;;;;;23.71;50.96;96734.34;4191967;28;5702;-75
2023/06/03 09:07:51;;;;;;;;;;;;;;;23.72;50.82;96735.97;4193390;28;5798;-75
2023/06/03 09:09:56;;;;;;;;;;;;;;;23.72;51.17;96729.75;4190778;28;5769;-76
2023/06/03 09:12:00;;;;;;;;;;;;;;;23.71;51.26;96728.97;4196446;28;5802;-76
2023/06/03 09:14:04;;;;;;;;;;;;;;;23.75;51.21;96730.00;4193774;28;5674;-75
2023/06/03 09:16:09;;;;;;;;;;;;;;;23.81;50.62;96728.91;4191378;28;5686;-76
2023/06/03 09:18:14;;;;;;;;;;;;;;;23.83;50.78;96730.50;4199580;28;5765;-76
2023/06/03 09:20:19;;;;;;;;;;;;;;;23.83;50.83;96725.13;4191602;28;5704;-76
2023/06/03 09:22:23;;;;;;;;;;;;;;;23.83;50.91;96730.50;4197829;28;5698;-75
2023/06/03 09:24:27;;;;;;;;;;;;;;;23.86;50.79;96724.56;4193541;28;5711;-75
2023/06/03 09:26:31;;;;;;;;;;;;;;;23.87;50.38;96726.16;4200285;28;5749;-76
2023/06/03 09:28:36;;;;;;;;;;;;;;;23.87;50.65;96724.25;4191677;28;5793;-76
2023/06/03 09:30:39;;;;;;;;;;;;;;;23.85;50.74;96722.94;4194335;28;7246;-75
2023/06/03 09:32:44;;;;;;;;;;;;;;;23.81;51.17;96722.69;4190699;28;5885;-76
2023/06/03 09:34:48;;;;;;;;;;;;;;;23.83;50.69;96725.13;4199802;28;5788;-76
2023/06/03 09:36:53;;;;;;;;;;;;;;;23.83;50.80;96725.91;4199771;28;5805;-76
2023/06/03 09:38:57;;;;;;;;;;;;;;;23.86;50.97;96724.56;4197956;28;5682;-73
2023/06/03 09:41:14;;;;;;;;;;;;;;;23.89;50.52;96729.38;4191864;28;5773;-73
2023/06/03 09:43:17;;;;;;;;;;;;;;;23.87;50.67;96729.66;4189989;28;5794;-73
2023/06/03 09:45:26;;;;;;;;;;;;;;;23.87;50.83;96720.75;4189549;28;5753;-73
2023/06/03 09:47:38;;;;;;;;;;;;;;;23.91;50.88;96727.22;4182725;28;5897;-73
2023/06/03 09:49:41;;;;;;;;;;;;;;;23.95;50.70;96720.97;4193371;28;6660;-73
2023/06/03 09:51:49;;;;;;;;;;;;;;;24.00;50.79;96730.94;4197896;28;5870;-75
2023/06/03 09:54:10;;;;;;;;;;;;;;;24.01;50.54;96733.38;4184064;28;5798;-74
2023/06/03 09:56:24;;;;;;;;;;;;;;;24.03;50.32;96725.78;4189645;28;7733;-74
2023/06/03 09:58:27;;;;;;;;;;;;;;;24.07;50.19;96726.03;4191261;28;5903;-73
2023/06/03 10:00:32;;;;;;;;;;;;;;;24.09;50.45;96723.84;4189628;28;5820;-73
2023/06/03 10:02:36;;;;;;;;;;;;;;;24.13;50.58;96719.53;4194868;28;5810;-73
2023/06/03 10:04:40;;;;;;;;;;;;;;;24.15;50.26;96722.75;4198053;28;5808;-80
2023/06/03 10:06:43;;;;;;;;;;;;;;;24.18;50.26;96721.38;4193169;28;5793;-79
2023/06/03 10:08:46;;;;;;;;;;;;;;;24.17;50.24;96725.16;4197408;28;5694;-81
2023/06/03 10:10:58;;;;;;;;;;;;;;;24.16;50.12;96718.94;4185796;28;5808;-80
2023/06/03 10:13:19;;;;;;;;;;;;;;;24.13;49.92;96724.94;4196727;28;5686;-80
2023/06/03 10:15:35;;;;;;;;;;;;;;;24.12;49.79;96720.59;4196829;28;5749;-80
2023/06/03 10:17:45;;;;;;;;;;;;;;;24.13;49.78;96713.31;4191206;28;5716;-80
2023/06/03 10:19:49;;;;;;;;;;;;;;;24.13;49.80;96716.81;4187338;28;6396;-79
2023/06/03 10:21:52;;;;;;;;;;;;;;;24.10;49.45;96715.47;4195312;28;5702;-84
2023/06/03 10:23:59;;;;;;;;;;;;;;;24.12;49.34;96712.47;4190268;28;5699;-82
2023/06/03 10:26:04;;;;;;;;;;;;;;;24.16;49.75;96712.75;4198184;28;5876;-82
2023/06/03 10:28:07;;;;;;;;;;;;;;;24.16;49.31;96708.16;4186755;28;5734;-82
2023/06/03 10:30:12;;;;;;;;;;;;;;;24.18;49.46;96699.75;4197817;28;5690;-82
2023/06/03 10:32:16;;;;;;;;;;;;;;;24.24;49.32;96707.56;4188206;28;5694;-82
2023/06/03 10:34:19;;;;;;;;;;;;;;;24.28;49.49;96695.09;4199252;28;5869;-82
2023/06/03 10:36:24;;;;;;;;;;;;;;;24.29;49.26;96691.28;4191017;28;5813;-82
2023/06/03 10:38:27;;;;;;;;;;;;;;;24.31;49.31;96701.84;4195671;28;5802;-81
2023/06/03 10:40:31;;;;;;;;;;;;;;;24.32;48.82;96696.16;4197340;28;5781;-82
2023/06/03 10:42:36;;;;;;;;;;;;;;;24.31;48.86;96693.72;4188459;28;5706;-82
2023/06/03 10:44:40;;;;;;;;;;;;;;;24.28;48.92;96692.38;4192833;28;5802;-82
2023/06/03 10:46:51;;;;;;;;;;;;;;;24.32;48.75;96693.44;4184936;28;5994;-81
2023/06/03 10:48:54;;;;;;;;;;;;;;;24.34;48.71;96693.16;4199259;28;5689;-82
2023/06/03 10:51:07;;;;;;;;;;;;;;;24.37;48.67;96692.63;4199541;28;5765;-82
2023/06/03 10:53:20;;;;;;;;;;;;;;;24.41;48.37;96692.84;4189615;28;5742;-82
2023/06/03 10:55:36;;;;;;;;;;;;;;;24.43;48.33;96691.47;4189806;28;5698;-82
2023/06/03 10:57:44;;;;;;;;;;;;;;;24.48;48.34;96694.13;4196826;28;5814;-82
2023/06/03 10:59:48;;;;;;;;;;;;;;;24.52;48.04;96683.56;4184878;28;5893;-83
2023/06/03 11:01:59;;;;;;;;;;;;;;;24.53;47.88;96683.28;4182938;28;5715;-82
2023/06/03 11:04:18;;;;;;;;;;;;;;;24.56;48.02;96684.59;4191133;28;5754;-82
2023/06/03 11:06:39;;;;;;;;;;;;;;;24.55;47.78;96685.69;4193674;28;5697;-83
2023/06/03 11:09:00;;;;;;;;;;;;;;;24.54;47.83;96682.19;4184646;28;5829;-82
2023/06/03 11:11:04;;;;;;;;;;;;;;;24.57;47.63;96680.78;4190827;28;5702;-82
2023/06/03 11:13:11;;;;;;;;;;;;;;;24.59;47.32;96676.75;4199368;28;5777;-82
2023/06/03 11:15:14;;;;;;;;;;;;;;;24.61;47.10;96673.75;4192850;28;5694;-82
2023/06/03 11:17:18;;;;;;;;;;;;;;;24.62;47.42;96672.66;4190211;28;5785;-83
2023/06/03 11:19:28;;;;;;;;;;;;;;;24.64;47.10;96665.06;4185319;28;5789;-82
2023/06/03 11:21:47;;;;;;;;;;;;;;;24.65;46.97;96667.47;4189941;28;5860;-80
2023/06/03 11:23:51;;;;;;;;;;;;;;;24.67;47.18;96659.06;4190558;28;5810;-80
2023/06/03 11:25:54;;;;;;;;;;;;;;;24.66;47.06;96658.28;4192222;28;5714;-81
2023/06/03 11:28:38;;;;;;;;;;;;;;;24.66;46.79;96658.28;4192737;28;5778;-82
2023/06/03 11:30:55;;;;;;;;;;;;;;;24.68;46.60;96645.25;4203039;28;5074;-84
2023/06/03 11:33:09;;;;;;;;;;;;;;;24.68;46.73;96644.47;4193920;28;5694;-82
2023/06/03 11:35:29;;;;;;;;;;;;;;;24.72;46.57;96640.13;4195532;28;5844;-83
2023/06/03 11:37:52;;;;;;;;;;;;;;;24.74;46.57;96648.75;4189578;28;5828;-83
2023/06/03 11:40:03;;;;;;;;;;;;;;;24.73;46.66;96641.72;4193101;28;5864;-82
2023/06/03 11:42:10;;;;;;;;;;;;;;;24.75;46.76;96642.22;4193683;28;5706;-83
2023/06/03 11:44:22;;;;;;;;;;;;;;;24.75;46.87;96639.53;4195701;28;5753;-82
2023/06/03 11:46:30;;;;;;;;;;;;;;;24.77;46.52;96626.53;4196194;28;6561;-83
2023/06/03 11:48:37;;;;;;;;;;;;;;;24.80;46.66;96623.25;4194797;28;5859;-70
2023/06/03 11:50:47;;;;;;;;;;;;;;;24.82;46.63;96629.19;4199127;28;5703;-66
2023/06/03 11:52:50;;;;;;;;;;;;;;;24.83;46.29;96624.59;4198836;28;5684;-66
2023/06/03 11:54:52;;;;;;;;;;;;;;;24.85;46.27;96625.91;4196567;28;5829;-66
2023/06/03 11:56:57;;;;;;;;;;;;;;;24.87;46.52;96631.81;4192937;28;5815;-66
2023/06/03 11:59:01;;;;;;;;;;;;;;;24.92;46.47;96628.28;4190297;28;5969;-66
2023/06/03 12:01:06;;;;;;;;;;;;;;;24.92;46.57;96614.75;4185132;28;5719;-66
2023/06/03 12:03:16;;;;;;;;;;;;;;;24.92;46.39;96612.84;4194602;28;5686;-74
2023/06/03 12:05:19;;;;;;;;;;;;;;;24.95;46.35;96612.25;4192461;28;7040;-70
2023/06/03 12:07:22;;;;;;;;;;;;;;;24.96;46.13;96616.56;4186935;28;5130;-70
2023/06/03 12:09:27;;;;;;;;;;;;;;;24.97;46.00;96609.25;4194701;28;5780;-71
2023/06/03 12:11:32;;;;;;;;;;;;;;;24.99;46.08;96612.47;4196568;28;5879;-71
2023/06/03 12:13:39;;;;;;;;;;;;;;;25.00;46.07;96607.88;4191784;28;5817;-72
2023/06/03 12:15:47;;;;;;;;;;;;;;;25.01;45.76;96614.91;4193503;28;5769;-72
2023/06/03 12:17:50;;;;;;;;;;;;;;;25.04;45.80;96608.97;4197866;28;5761;-72
2023/06/03 12:19:55;;;;;;;;;;;;;;;25.05;45.53;96610.56;4198447;28;6529;-73
2023/06/03 12:22:00;;;;;;;;;;;;;;;25.04;45.56;96611.66;4194935;28;5917;-72
2023/06/03 12:24:08;;;;;;;;;;;;;;;25.01;45.76;96612.19;4194359;28;5801;-71
2023/06/03 12:26:11;;;;;;;;;;;;;;;25.00;45.46;96608.69;4191084;28;5761;-72
2023/06/03 12:28:27;;;;;;;;;;;;;;;25.02;45.48;96613.81;4192702;28;5686;-72
2023/06/03 12:30:31;;;;;;;;;;;;;;;25.04;45.77;96608.97;4190872;28;5689;-72
2023/06/03 12:32:50;;;;;;;;;;;;;;;25.04;45.62;96603.53;4189041;28;5730;-72
2023/06/03 12:34:55;;;;;;;;;;;;;;;25.02;45.33;96600.31;4196244;28;5797;-72
2023/06/03 12:36:58;;;;;;;;;;;;;;;25.04;45.43;96603.53;4196102;28;5813;-72
2023/06/03 12:39:00;;;;;;;;;;;;;;;25.06;45.61;96595.94;4188770;28;5720;-71
2023/06/03 12:41:08;;;;;;;;;;;;;;;25.08;45.25;96597.25;4194297;28;5905;-70
2023/06/03 12:43:18;;;;;;;;;;;;;;;25.11;45.37;96585.03;4192340;28;5722;-71
2023/06/03 12:45:24;;;;;;;;;;;;;;;25.13;45.36;96580.94;4193821;28;6506;-71
2023/06/03 12:47:28;;;;;;;;;;;;;;;25.16;45.39;96587.69;4192949;28;5685;-71
2023/06/03 12:49:31;;;;;;;;;;;;;;;25.18;45.10;96583.59;4190329;28;5960;-71
2023/06/03 12:51:36;;;;;;;;;;;;;;;25.20;44.89;96575.19;4192208;28;5844;-71
2023/06/03 12:53:39;;;;;;;;;;;;;;;25.22;44.82;96575.69;4193986;28;5801;-70
2023/06/03 12:55:42;;;;;;;;;;;;;;;25.23;45.06;96574.59;4195038;28;6033;-78
2023/06/03 12:57:46;;;;;;;;;;;;;;;25.22;45.09;96575.69;4190255;28;5896;-75
2023/06/03 13:00:07;;;;;;;;;;;;;;;25.22;44.59;96579.19;4189285;28;6027;-74
2023/06/03 13:02:10;;;;;;;;;;;;;;;25.25;44.39;96577.81;4191036;28;5701;-74
2023/06/03 13:04:13;;;;;;;;;;;;;;;25.26;44.36;96574.03;4192161;28;7851;-74
2023/06/03 13:06:16;;;;;;;;;;;;;;;25.28;44.31;96574.53;4190246;28;5794;-74
2023/06/03 13:08:21;;;;;;;;;;;;;;;25.31;44.44;96578.56;4191024;28;5908;-72
2023/06/03 13:10:24;;;;;;;;;;;;;;;25.35;44.13;96574.16;4193986;28;5790;-71
2023/06/03 13:12:28;;;;;;;;;;;;;;;25.38;44.34;96571.69;4196358;28;5701;-66
2023/06/03 13:14:31;;;;;;;;;;;;;;;25.42;44.22;96583.53;4189383;28;5928;-67
2023/06/03 13:16:34;;;;;;;;;;;;;;;25.42;43.94;96570.00;4197033;28;5698;-67
2023/06/03 13:18:37;;;;;;;;;;;;;;;25.45;43.79;96577.53;4187380;28;5690;-64
2023/06/03 13:20:40;;;;;;;;;;;;;;;25.48;43.90;96581.53;4188945;28;5690;-65
2023/06/03 13:22:43;;;;;;;;;;;;;;;25.47;43.88;96586.16;4192799;28;5777;-65
2023/06/03 13:24:48;;;;;;;;;;;;;;;25.48;43.81;96585.06;4189940;28;5919;-65
2023/06/03 13:26:50;;;;;;;;;;;;;;;25.46;43.89;96578.31;4190938;28;6313;-69
2023/06/03 13:28:53;;;;;;;;;;;;;;;25.42;44.03;96572.72;4188640;28;5690;-65
2023/06/03 13:30:57;;;;;;;;;;;;;;;25.40;44.41;96569.50;4195592;28;5871;-71
2023/06/03 13:33:00;;;;;;;;;;;;;;;25.42;44.35;96561.88;4188239;28;7799;-68
2023/06/03 13:35:04;;;;;;;;;;;;;;;25.43;43.99;96560.78;4194694;28;5686;-67
2023/06/03 13:37:08;;;;;;;;;;;;;;;25.43;44.01;96563.47;4191789;28;5810;-67
2023/06/03 13:39:11;;;;;;;;;;;;;;;25.43;44.41;96558.06;4196283;28;5933;-73
2023/06/03 13:41:16;;;;;;;;;;;;;;;25.43;44.15;96560.78;4191542;28;5900;-72
2023/06/03 13:43:19;;;;;;;;;;;;;;;25.45;44.23;96552.38;4194351;28;5907;-72
2023/06/03 13:45:28;;;;;;;;;;;;;;;25.43;44.39;96547.25;4192276;28;5912;-72
2023/06/03 13:47:31;;;;;;;;;;;;;;;25.46;44.47;96552.06;4182474;28;5794;-71
2023/06/03 13:49:34;;;;;;;;;;;;;;;25.47;44.47;96542.84;4189870;28;6635;-71
2023/06/03 13:51:37;;;;;;;;;;;;;;;25.48;44.41;96549.91;4184657;28;5731;-71
2023/06/03 13:53:40;;;;;;;;;;;;;;;25.50;44.50;96555.81;4193634;28;5681;-71
2023/06/03 13:55:43;;;;;;;;;;;;;;;25.52;44.54;96556.31;4190379;28;5782;-71
2023/06/03 13:57:47;;;;;;;;;;;;;;;25.56;44.34;96561.94;4187768;28;5840;-71
2023/06/03 13:59:51;;;;;;;;;;;;;;;25.60;44.42;96557.56;4192110;28;5800;-70
2023/06/03 14:01:55;;;;;;;;;;;;;;;25.63;44.87;96556.16;4183193;28;5868;-71
2023/06/03 14:03:58;;;;;;;;;;;;;;;25.66;44.52;96555.56;4186368;28;5581;-71
2023/06/03 14:06:02;;;;;;;;;;;;;;;25.73;44.61;96561.44;4185742;28;5881;-71
2023/06/03 14:08:08;;;;;;;;;;;;;;;25.79;44.48;96547.50;4194581;28;5809;-71
2023/06/03 14:10:11;;;;;;;;;;;;;;;25.81;44.35;96553.44;4195007;28;5801;-72
2023/06/03 14:12:14;;;;;;;;;;;;;;;25.83;44.51;96542.31;4190541;28;5816;-79
2023/06/03 14:14:19;;;;;;;;;;;;;;;25.82;44.21;96543.41;4193043;28;5700;-67
2023/06/03 14:16:26;;;;;;;;;;;;;;;25.82;44.21;96549.66;4188434;28;5810;-74
2023/06/03 14:18:29;;;;;;;;;;;;;;;25.81;44.49;96548.00;4194981;28;5772;-64
2023/06/03 14:20:32;;;;;;;;;;;;;;;25.78;44.10;96553.22;4194944;28;5864;-64
2023/06/03 14:22:35;;;;;;;;;;;;;;;25.77;44.29;96559.75;4189723;28;5793;-64
2023/06/03 14:24:37;;;;;;;;;;;;;;;25.74;44.56;96569.25;4188793;28;5848;-64
2023/06/03 14:26:41;;;;;;;;;;;;;;;25.74;44.20;96569.25;4187225;28;6678;-64
2023/06/03 14:28:43;;;;;;;;;;;;;;;25.76;43.97;96572.47;4190833;28;5769;-63
2023/06/03 14:30:48;;;;;;;;;;;;;;;25.79;44.23;96576.50;4192717;28;5750;-64
2023/06/03 14:33:00;;;;;;;;;;;;;;;25.73;44.18;96583.09;4182710;28;5777;-64
2023/06/03 14:35:07;;;;;;;;;;;;;;;25.43;44.92;96587.84;4186983;28;5868;-65
2023/06/03 14:37:10;;;;;;;;;;;;;;;24.97;46.65;96591.13;4187909;28;5632;-64
2023/06/03 14:39:15;;;;;;;;;;;;;;;24.55;47.72;96600.00;4192133;28;5702;-64
2023/06/03 14:41:18;;;;;;;;;;;;;;;24.06;49.30;96606.41;4193797;28;5697;-63
2023/06/03 14:43:20;;;;;;;;;;;;;;;23.67;50.05;96613.72;4187714;28;5888;-62
2023/06/03 14:45:23;;;;;;;;;;;;;;;23.46;50.88;96610.34;4196330;28;5690;-62
2023/06/03 14:47:27;;;;;;;;;;;;;;;23.28;51.27;96616.41;4197768;28;6721;-62
2023/06/03 14:49:30;;;;;;;;;;;;;;;23.10;51.63;96615.13;4187526;28;5824;-63
2023/06/03 14:51:33;;;;;;;;;;;;;;;23.01;52.04;96628.41;4188524;28;5777;-63
2023/06/03 14:53:36;;;;;;;;;;;;;;;22.94;52.36;96625.19;4195562;28;5821;-63
2023/06/03 14:55:41;;;;;;;;;;;;;;;22.81;52.76;96617.66;4187171;28;5868;-63
2023/06/03 14:57:44;;;;;;;;;;;;;;;22.74;53.25;96617.13;4191362;28;5685;-63
2023/06/03 14:59:47;;;;;;;;;;;;;;;22.70;52.99;96606.09;4189448;28;5840;-63
2023/06/03 15:01:50;;;;;;;;;;;;;;;22.64;52.86;96608.00;4198514;28;6549;-64
2023/06/03 15:03:55;;;;;;;;;;;;;;;22.56;52.87;96605.88;4196027;28;5836;-63
2023/06/03 15:05:58;;;;;;;;;;;;;;;22.52;53.11;96599.41;4194060;28;5888;-63
2023/06/03 15:08:01;;;;;;;;;;;;;;;22.52;53.26;96588.63;4189838;28;5781;-63
2023/06/03 15:10:04;;;;;;;;;;;;;;;22.52;53.08;96602.09;4195878;28;5829;-63
2023/06/03 15:12:08;;;;;;;;;;;;;;;22.50;53.01;96604.28;4193728;28;5793;-63
2023/06/03 15:14:13;;;;;;;;;;;;;;;22.39;53.70;96605.38;4191832;28;5694;-64
2023/06/03 15:16:16;;;;;;;;;;;;;;;22.37;53.79;96613.72;4191722;28;5686;-64
2023/06/03 15:18:19;;;;;;;;;;;;;;;22.29;53.88;96621.56;4195300;28;5853;-64
2023/06/03 15:20:24;;;;;;;;;;;;;;;22.09;54.46;96625.09;4197207;28;6523;-64
2023/06/03 15:22:27;;;;;;;;;;;;;;;22.01;55.07;96620.22;4191694;28;5690;-63
2023/06/03 15:24:30;;;;;;;;;;;;;;;21.99;55.50;96623.19;4192544;28;5794;-62
2023/06/03 15:26:33;;;;;;;;;;;;;;;21.97;56.20;96622.66;4192751;28;5782;-63
2023/06/03 15:28:36;;;;;;;;;;;;;;;21.88;56.65;96607.31;4197398;28;6717;-63
2023/06/03 15:30:39;;;;;;;;;;;;;;;21.86;56.75;96598.66;4190487;28;5868;-64
2023/06/03 15:32:41;;;;;;;;;;;;;;;21.87;57.09;96593.03;4199112;28;5690;-64
2023/06/03 15:34:44;;;;;;;;;;;;;;;21.93;57.96;96591.94;4194205;28;5817;-64
2023/06/03 15:36:49;;;;;;;;;;;;;;;22.01;58.19;96587.91;4194941;28;5761;-64
2023/06/03 15:38:51;;;;;;;;;;;;;;;22.08;58.10;96585.75;4195028;28;5712;-62
2023/06/03 15:40:57;;;;;;;;;;;;;;;22.15;58.59;96594.38;4194112;28;5913;-63
2023/06/03 15:43:00;;;;;;;;;;;;;;;22.10;59.03;96586.31;4197788;28;5709;-63
2023/06/03 15:45:04;;;;;;;;;;;;;;;22.11;59.32;96592.50;4196798;28;5785;-64
2023/06/03 15:47:07;;;;;;;;;;;;;;;22.16;59.37;96592.50;4191646;28;5912;-63
2023/06/03 15:49:10;;;;;;;;;;;;;;;22.25;60.22;96591.69;4193035;28;5769;-63
2023/06/03 15:51:15;;;;;;;;;;;;;;;22.37;60.31;96594.06;4195233;28;5773;-64
2023/06/03 15:53:20;;;;;;;;;;;;;;;22.45;60.70;96604.28;4196732;28;6896;-63
2023/06/03 15:55:23;;;;;;;;;;;;;;;22.51;61.22;96605.88;4196898;28;5888;-64
2023/06/03 15:57:26;;;;;;;;;;;;;;;22.49;61.10;96607.25;4198037;28;5693;-63
2023/06/03 15:59:29;;;;;;;;;;;;;;;22.50;61.87;96612.34;4196528;28;5961;-63
2023/06/03 16:01:32;;;;;;;;;;;;;;;22.55;62.18;96601.59;4189027;28;5799;-64
2023/06/03 16:03:35;;;;;;;;;;;;;;;22.56;62.33;96615.84;4192134;28;5863;-65
2023/06/03 16:05:38;;;;;;;;;;;;;;;22.47;62.56;96618.28;4194997;28;5889;-66
2023/06/03 16:07:42;;;;;;;;;;;;;;;22.45;62.81;96620.47;4184841;28;6005;-67
2023/06/03 16:09:46;;;;;;;;;;;;;;;22.44;63.19;96634.19;4186370;28;5773;-70
2023/06/03 16:11:49;;;;;;;;;;;;;;;22.50;63.74;96631.22;4186416;28;5714;-67
2023/06/03 16:13:52;;;;;;;;;;;;;;;22.58;64.10;96625.28;4190814;28;7730;-70
2023/06/03 16:15:55;;;;;;;;;;;;;;;22.57;63.88;96622.84;4197727;28;5686;-69
2023/06/03 16:17:58;;;;;;;;;;;;;;;22.54;64.30;96621.53;4190031;28;5838;-69
2023/06/03 16:20:01;;;;;;;;;;;;;;;22.57;64.67;96618.28;4188269;28;6555;-69
2023/06/03 16:22:05;;;;;;;;;;;;;;;22.70;64.83;96626.84;4193282;28;5814;-70
2023/06/03 16:24:08;;;;;;;;;;;;;;;22.79;64.60;96630.59;4196488;28;5890;-70
2023/06/03 16:26:13;;;;;;;;;;;;;;;22.86;65.20;96620.34;4194608;28;5694;-70
2023/06/03 16:28:16;;;;;;;;;;;;;;;22.89;64.79;96619.81;4189820;28;5713;-70
2023/06/03 16:30:19;;;;;;;;;;;;;;;22.90;64.83;96613.34;4193484;28;5876;-73
2023/06/03 16:32:22;;;;;;;;;;;;;;;22.93;65.48;96620.88;4190566;28;5796;-71
2023/06/03 16:34:25;;;;;;;;;;;;;;;22.96;65.25;96633.78;4194436;28;5682;-71
2023/06/03 16:36:28;;;;;;;;;;;;;;;22.98;65.32;96634.31;4192838;28;5757;-71
2023/06/03 16:38:33;;;;;;;;;;;;;;;22.94;65.37;96622.47;4195787;28;6494;-71
2023/06/03 16:40:37;;;;;;;;;;;;;;;22.95;64.85;96629.47;4188174;28;5686;-71
2023/06/03 16:42:41;;;;;;;;;;;;;;;22.93;65.26;96629.75;4193501;28;5836;-72
2023/06/03 16:44:44;;;;;;;;;;;;;;;23.00;65.28;96626.78;4189505;28;5686;-71
2023/06/03 16:46:48;;;;;;;;;;;;;;;23.01;65.13;96624.91;4190844;28;5821;-72
2023/06/03 16:48:51;;;;;;;;;;;;;;;23.05;64.68;96617.84;4186897;28;5789;-71
2023/06/03 16:50:54;;;;;;;;;;;;;;;23.07;64.95;96611.09;4194052;28;6704;-72
2023/06/03 16:52:57;;;;;;;;;;;;;;;23.10;64.37;96626.72;4193595;28;5814;-71
2023/06/03 16:54:59;;;;;;;;;;;;;;;23.18;64.33;96634.22;4191180;28;5926;-71
2023/06/03 16:57:02;;;;;;;;;;;;;;;23.24;64.65;96622.34;4193845;28;5799;-71
2023/06/03 16:59:07;;;;;;;;;;;;;;;23.28;64.17;96625.28;4193420;28;5719;-71
2023/06/03 17:01:10;;;;;;;;;;;;;;;23.26;64.12;96618.56;4197475;28;5762;-71
2023/06/03 17:03:13;;;;;;;;;;;;;;;23.22;63.60;96616.44;4192080;28;5690;-71
2023/06/03 17:05:16;;;;;;;;;;;;;;;23.26;63.61;96621.25;4192896;28;5701;-71
2023/06/03 17:07:19;;;;;;;;;;;;;;;23.29;63.78;96618.00;4190878;28;5850;-71
2023/06/03 17:09:23;;;;;;;;;;;;;;;23.33;63.14;96624.44;4191336;28;5904;-71
2023/06/03 17:11:27;;;;;;;;;;;;;;;23.36;63.09;96626.59;4191432;28;6423;-72
2023/06/03 17:13:30;;;;;;;;;;;;;;;23.37;63.08;96620.94;4193081;28;5686;-71
2023/06/03 17:15:35;;;;;;;;;;;;;;;23.34;62.94;96621.50;4189507;28;5984;-71
2023/06/03 17:17:37;;;;;;;;;;;;;;;23.34;62.65;96620.69;4193837;28;5837;-71
2023/06/03 17:19:41;;;;;;;;;;;;;;;23.29;62.43;96616.09;4194222;28;6498;-71
2023/06/03 17:21:44;;;;;;;;;;;;;;;23.30;62.42;96612.31;4190495;28;5711;-72
2023/06/03 17:23:47;;;;;;;;;;;;;;;23.34;62.03;96615.28;4195179;28;5813;-70
2023/06/03 17:25:51;;;;;;;;;;;;;;;23.38;61.85;96606.34;4186138;28;5718;-67
2023/06/03 17:27:54;;;;;;;;;;;;;;;23.44;61.46;96609.81;4190617;28;5897;-69
2023/06/03 17:29:57;;;;;;;;;;;;;;;23.46;61.29;96613.06;4188838;28;5790;-67
2023/06/03 17:32:01;;;;;;;;;;;;;;;23.47;61.23;96603.88;4192960;28;5820;-69
2023/06/03 17:34:04;;;;;;;;;;;;;;;23.50;60.98;96601.41;4189558;28;5702;-69
2023/06/03 17:36:08;;;;;;;;;;;;;;;23.54;60.92;96598.94;4194549;28;5860;-68
2023/06/03 17:38:11;;;;;;;;;;;;;;;23.59;60.91;96601.66;4190844;28;6664;-67
2023/06/03 17:40:14;;;;;;;;;;;;;;;23.64;60.23;96601.63;4189145;28;5885;-69
2023/06/03 17:42:17;;;;;;;;;;;;;;;23.69;60.70;96600.78;4196652;28;6528;-64
2023/06/03 17:44:21;;;;;;;;;;;;;;;23.75;60.39;96599.66;4199615;28;5682;-69
2023/06/03 17:46:24;;;;;;;;;;;;;;;23.77;60.30;96609.06;4196980;28;5754;-66
2023/06/03 17:48:28;;;;;;;;;;;;;;;23.79;60.15;96608.81;4194169;28;5690;-74
2023/06/03 17:50:31;;;;;;;;;;;;;;;23.78;59.95;96610.72;4192252;28;5714;-65